Smit Barbados — MSDU8 — position and weather

sailwx.info

Track history (hours):
 
Tides and Currents Weather Stations Pressure Air Temp Water Temp Dewpoint Dewpoint Depression Visibility Wind Speed Wind Dir Waves Ship Positions

Smit Barbados

Last reported at 2015-Apr-28 11:33 UTC. Time now 2015-Apr-28 11:54 UTC.
Position N 53°26' W 002°60'.

Length 30 m; draft 4.8 m.

Type: Tug. MMSI: 235055303.

Date/timePositionNaut miles runAvg speedWind from/ knotsBaromVisibWave heightAir tempDewpointWater temp
2015-Apr-28 11:33N 53°26' W 002°60'0 0.0
2015-Apr-28 10:33N 53°26' W 002°60'0 0.0
2015-Apr-28 09:33N 53°26' W 002°60'0 0.2
2015-Apr-28 08:34N 53°26' W 003°00'1 0.7
2015-Apr-28 07:34N 53°27' W 003°01'1 1.3
2015-Apr-28 06:33N 53°28' W 003°02'0 0.1
2015-Apr-28 05:33N 53°28' W 003°01'0 0.2
2015-Apr-28 04:33N 53°28' W 003°01'0 0.0
2015-Apr-28 03:33N 53°28' W 003°01'0 0.0
2015-Apr-28 02:34N 53°28' W 003°01'0 0.0
2015-Apr-28 01:34N 53°28' W 003°01'0 0.0
2015-Apr-28 00:33N 53°28' W 003°01'0 0.0
2015-Apr-27 23:33N 53°28' W 003°01'0 0.1
2015-Apr-27 22:33N 53°27' W 003°01'0 0.2
2015-Apr-27 21:33N 53°28' W 003°02'2 2.0
2015-Apr-27 20:33N 53°26' W 002°60'1 0.8
2015-Apr-27 19:33N 53°27' W 003°00'1 1.3
2015-Apr-27 18:33N 53°28' W 003°02'1 0.8
2015-Apr-27 17:33N 53°27' W 003°01'1 1.4
2015-Apr-27 16:33N 53°28' W 003°03'2 1.6
2015-Apr-27 15:33N 53°27' W 003°01'1 1.1
2015-Apr-27 14:33N 53°26' W 002°60'0 0.0
2015-Apr-27 13:34N 53°26' W 002°60'0 0.0
2015-Apr-27 12:33N 53°26' W 002°60'0 0.0
2015-Apr-27 11:33N 53°26' W 002°60'0 0.0
2015-Apr-27 10:33N 53°26' W 002°60'0 0.0
2015-Apr-27 09:33N 53°26' W 002°60'0 0.0
2015-Apr-27 08:33N 53°26' W 002°60'0 0.0
2015-Apr-27 07:34N 53°26' W 002°60'0 0.0
2015-Apr-27 06:34N 53°26' W 002°60'0 0.0
2015-Apr-27 05:33N 53°26' W 002°60'0 0.0
2015-Apr-27 04:34N 53°26' W 002°60'0 0.0
2015-Apr-27 03:34N 53°26' W 002°60'0 0.0
2015-Apr-27 02:33N 53°26' W 002°60'0 0.0
2015-Apr-27 01:34N 53°26' W 002°60'0 0.0
2015-Apr-27 00:34N 53°26' W 002°60'0 0.0
2015-Apr-26 23:34N 53°26' W 002°60'0 0.0
2015-Apr-26 22:34N 53°26' W 002°60'0 0.0
2015-Apr-26 21:34N 53°26' W 002°60'0 0.0
2015-Apr-26 20:33N 53°26' W 002°60'0 0.0
2015-Apr-26 19:34N 53°26' W 002°60'0 0.0
2015-Apr-26 18:33N 53°26' W 002°60'0 0.0
2015-Apr-26 17:34N 53°26' W 002°60'0 0.0
2015-Apr-26 16:34N 53°26' W 002°60'0 0.0
2015-Apr-26 15:33N 53°26' W 002°60'0 0.0
2015-Apr-26 14:34N 53°26' W 002°60'0 0.0
2015-Apr-26 13:34N 53°26' W 002°60'0 0.0
2015-Apr-26 05:33N 53°26' W 002°60'2 1.9
2015-Apr-26 04:33N 53°28' W 003°01'1 0.8
2015-Apr-26 03:33N 53°27' W 003°01'3 2.5
2015-Apr-26 02:33N 53°29' W 003°04'3 2.5
2015-Apr-26 01:33N 53°27' W 003°01'1 0.6
2015-Apr-26 00:33N 53°27' W 003°01'2 1.7
2015-Apr-25 23:34N 53°26' W 003°00'0 0.2
2015-Apr-25 22:33N 53°26' W 002°60'0 0.0
2015-Apr-25 21:33N 53°26' W 002°60'0 0.0
2015-Apr-25 20:33N 53°26' W 002°60'0 0.0
2015-Apr-25 19:33N 53°26' W 002°60'0 0.0
2015-Apr-25 18:33N 53°26' W 002°60'0 0.0
2015-Apr-25 17:33N 53°26' W 002°60'1 0.7
2015-Apr-25 16:33N 53°26' W 003°01'0 0.0
2015-Apr-25 15:33N 53°26' W 003°01'0 0.1
2015-Apr-25 14:33N 53°26' W 003°00'0 0.3
2015-Apr-25 13:33N 53°26' W 003°00'1 1.0
2015-Apr-25 12:33N 53°27' W 003°01'0 0.5
2015-Apr-25 11:33N 53°27' W 003°02'1 1.3
2015-Apr-25 10:33N 53°26' W 002°60'0 0.0
2015-Apr-25 09:33N 53°26' W 002°60'0 0.0
2015-Apr-25 08:33N 53°26' W 002°60'0 0.0
2015-Apr-25 07:33N 53°26' W 002°60'0 0.0
2015-Apr-25 06:33N 53°26' W 002°60'0 0.0
2015-Apr-25 05:33N 53°26' W 002°60'0 0.0
2015-Apr-25 04:33N 53°26' W 002°60'0 0.0
2015-Apr-25 03:33N 53°26' W 002°60'1 1.3
2015-Apr-25 02:33N 53°27' W 003°01'0 0.5
2015-Apr-25 01:33N 53°27' W 003°01'2 1.7
2015-Apr-25 00:33N 53°26' W 002°60'0 0.0
2015-Apr-24 23:34N 53°26' W 002°60'0 0.0
2015-Apr-24 22:34N 53°26' W 002°60'0 0.0
2015-Apr-24 21:33N 53°26' W 002°60'0 0.0
2015-Apr-24 20:33N 53°26' W 002°60'0 0.0
2015-Apr-24 19:34N 53°26' W 002°60'0 0.0
2015-Apr-24 18:34N 53°26' W 002°60'0 0.0
2015-Apr-24 17:33N 53°26' W 002°60'0 0.0
2015-Apr-24 16:33N 53°26' W 002°60'1 0.7
2015-Apr-24 15:33N 53°26' W 003°00'0 0.1
2015-Apr-24 14:33N 53°26' W 003°01'2 1.9
2015-Apr-24 13:33N 53°28' W 003°03'1 0.8
2015-Apr-24 12:33N 53°27' W 003°02'0 0.5
2015-Apr-24 11:33N 53°27' W 003°01'1 0.8
2015-Apr-24 10:33N 53°27' W 003°00'1 0.6
2015-Apr-24 09:34N 53°26' W 002°60'1 0.5
2015-Apr-24 08:33N 53°26' W 003°01'2 1.8
2015-Apr-24 07:34N 53°25' W 003°00'2 1.7
2015-Apr-24 06:34N 53°26' W 003°01'1 0.7
2015-Apr-24 05:33N 53°26' W 002°60'0 0.0
2015-Apr-24 04:33N 53°26' W 002°60'0 0.0
2015-Apr-24 03:33N 53°26' W 002°60'2 1.8
2015-Apr-24 02:33N 53°27' W 003°01'1 0.6
2015-Apr-24 01:33N 53°27' W 003°01'1 1.2
2015-Apr-24 00:33N 53°28' W 003°03'2 1.7
2015-Apr-23 23:33N 53°26' W 003°01'1 0.9
2015-Apr-23 22:33N 53°27' W 003°01'0 0.4
2015-Apr-23 21:33N 53°28' W 003°01'2 1.9
2015-Apr-23 20:33N 53°26' W 002°60'0 0.0
2015-Apr-23 19:33N 53°26' W 002°60'0 0.0
2015-Apr-23 18:33N 53°26' W 002°60'0 0.0
2015-Apr-23 17:33N 53°26' W 002°60'0 0.0
2015-Apr-23 16:33N 53°26' W 002°60'0 0.0
2015-Apr-23 15:33N 53°26' W 002°60'0 0.0
2015-Apr-23 14:33N 53°26' W 002°60'0 0.0
2015-Apr-23 13:33N 53°26' W 002°60'0 0.0
2015-Apr-23 12:33N 53°26' W 003°00'1 0.6
2015-Apr-23 11:33N 53°26' W 003°01'0 0.2
2015-Apr-23 10:33N 53°26' W 003°01'0 0.2
2015-Apr-23 09:33N 53°26' W 003°01'1 0.6
2015-Apr-23 08:33N 53°26' W 002°60'0 0.0
2015-Apr-23 07:33N 53°26' W 002°60'0 0.0
2015-Apr-23 06:33N 53°26' W 002°60'0 0.0
2015-Apr-23 05:33N 53°26' W 002°60'0 0.0
2015-Apr-23 04:33N 53°26' W 002°60'0 0.0
2015-Apr-23 03:33N 53°26' W 002°60'0 0.0
2015-Apr-23 02:33N 53°26' W 002°60'0 0.0
2015-Apr-23 01:33N 53°26' W 002°60'0 0.0
2015-Apr-23 00:33N 53°26' W 002°60'0 0.0
2015-Apr-22 23:33N 53°26' W 002°60'0 0.0
2015-Apr-22 22:33N 53°26' W 002°60'0 0.0
2015-Apr-22 21:33N 53°26' W 002°60'0 0.0
2015-Apr-22 20:33N 53°26' W 002°60'0 0.0
2015-Apr-22 19:33N 53°26' W 002°60'0 0.0
2015-Apr-22 18:33N 53°26' W 002°60'0 0.0
2015-Apr-22 17:33N 53°26' W 002°60'0 0.0
2015-Apr-22 16:33N 53°26' W 002°60'0 0.0
2015-Apr-22 15:33N 53°26' W 002°60'0 0.0
2015-Apr-22 14:33N 53°26' W 002°60'0 0.0
2015-Apr-22 13:33N 53°26' W 002°60'0 0.0
2015-Apr-22 12:33N 53°26' W 002°60'0 0.0
2015-Apr-22 11:33N 53°26' W 002°60'0 0.0
2015-Apr-22 10:33N 53°26' W 002°60'0 0.0
2015-Apr-22 09:33N 53°26' W 002°60'0 0.0
2015-Apr-22 08:33N 53°26' W 002°60'0 0.0
2015-Apr-22 07:33N 53°26' W 002°60'0 0.0
2015-Apr-22 06:33N 53°26' W 002°60'0 0.0
2015-Apr-22 05:33N 53°26' W 002°60'0 0.0
2015-Apr-22 04:33N 53°26' W 002°60'0 0.0
2015-Apr-22 03:33N 53°26' W 002°60'0 0.0
2015-Apr-22 02:32N 53°26' W 002°60'0 0.0
2015-Apr-22 01:32N 53°26' W 002°60'0 0.0
2015-Apr-22 00:33N 53°26' W 002°60'0 0.0
2015-Apr-21 23:33N 53°26' W 002°60'0 0.0
2015-Apr-21 22:33N 53°26' W 002°60'0 0.0
2015-Apr-21 21:33N 53°26' W 002°60'0 0.0
2015-Apr-21 20:33N 53°26' W 002°60'0 0.0
2015-Apr-21 19:33N 53°26' W 002°60'0 0.0
2015-Apr-21 18:33N 53°26' W 002°60'0 0.0
2015-Apr-21 17:33N 53°26' W 002°60'0 0.0
2015-Apr-21 16:33N 53°26' W 002°60'1 0.7
2015-Apr-21 15:33N 53°26' W 003°01'3 3.4
2015-Apr-21 14:34N 53°23' W 002°60'3 2.7
2015-Apr-21 13:33N 53°21' W 002°58'3 2.8
2015-Apr-21 12:33N 53°23' W 003°00'4 3.6
2015-Apr-21 11:33N 53°27' W 003°01'1 0.5
2015-Apr-21 10:33N 53°26' W 003°01'1 0.6
2015-Apr-21 09:34N 53°26' W 003°00'0 0.0
2015-Apr-21 08:33N 53°26' W 003°00'1 0.7
2015-Apr-21 07:34N 53°27' W 003°00'1 0.7
2015-Apr-21 06:33N 53°26' W 002°60'0 0.0
2015-Apr-21 05:33N 53°26' W 002°60'0 0.0
2015-Apr-21 04:33N 53°26' W 002°60'0 0.0
2015-Apr-21 03:33N 53°26' W 002°60'0 0.0
2015-Apr-21 02:33N 53°26' W 002°60'0 0.0
2015-Apr-21 01:33N 53°26' W 002°60'0 0.0
2015-Apr-21 00:33N 53°26' W 002°60'0 0.0
2015-Apr-20 23:33N 53°26' W 002°60'0 0.0
2015-Apr-20 22:33N 53°26' W 002°60'0 0.0
2015-Apr-20 21:33N 53°26' W 002°60'0 0.0
2015-Apr-20 20:33N 53°26' W 002°60'0 0.0
2015-Apr-20 19:33N 53°26' W 002°60'0 0.0
2015-Apr-20 18:33N 53°26' W 002°60'0 0.0
2015-Apr-20 17:33N 53°26' W 002°60'0 0.0
2015-Apr-20 16:33N 53°26' W 002°60'1 0.7
2015-Apr-20 15:33N 53°26' W 003°01'6 6.5
2015-Apr-20 14:34N 53°20' W 002°57'1 0.9
2015-Apr-20 13:33N 53°19' W 002°57'1 0.6
2015-Apr-20 12:33N 53°20' W 002°57'4 3.7
2015-Apr-20 11:33N 53°23' W 003°00'1 0.9
2015-Apr-20 10:33N 53°24' W 003°01'2 1.7
2015-Apr-20 09:33N 53°26' W 002°60'0 0.0
2015-Apr-20 08:33N 53°26' W 002°60'0 0.0
2015-Apr-20 07:33N 53°26' W 002°60'0 0.0
2015-Apr-20 06:33N 53°26' W 002°60'0 0.0
2015-Apr-20 05:33N 53°26' W 002°60'0 0.0
2015-Apr-20 04:33N 53°26' W 002°60'0 0.0
2015-Apr-20 03:33N 53°26' W 002°60'0 0.0
2015-Apr-20 02:33N 53°26' W 002°60'0 0.0
2015-Apr-20 01:33N 53°26' W 002°60'0 0.0
2015-Apr-20 00:33N 53°26' W 002°60'0 0.0
2015-Apr-19 23:33N 53°26' W 002°60'0 0.0
2015-Apr-19 22:33N 53°26' W 002°60'0 0.0
2015-Apr-19 21:33N 53°26' W 002°60'0 0.0
2015-Apr-19 20:33N 53°26' W 002°60'0 0.0
2015-Apr-19 19:33N 53°26' W 002°60'0 0.0
2015-Apr-19 18:33N 53°26' W 002°60'0 0.0
2015-Apr-19 17:33N 53°26' W 002°60'0 0.0
2015-Apr-19 16:33N 53°26' W 002°60'0 0.0
2015-Apr-19 15:33N 53°26' W 002°60'0 0.0
2015-Apr-19 14:33N 53°26' W 002°60'0 0.0
2015-Apr-19 13:33N 53°26' W 002°60'1 1.5
2015-Apr-19 12:33N 53°27' W 003°01'0 0.1
2015-Apr-19 11:34N 53°27' W 003°01'0 0.4
2015-Apr-19 10:33N 53°27' W 003°01'1 1.2
2015-Apr-19 09:33N 53°26' W 002°60'0 0.0
2015-Apr-19 08:33N 53°26' W 003°00'2 1.7
2015-Apr-19 07:33N 53°27' W 003°01'2 1.7
2015-Apr-19 06:33N 53°26' W 003°00'0 0.0
2015-Apr-19 05:33N 53°26' W 002°60'0 0.0
2015-Apr-19 04:33N 53°26' W 002°60'0 0.0
2015-Apr-19 03:34N 53°26' W 002°60'0 0.0
2015-Apr-19 02:33N 53°26' W 002°60'0 0.0
2015-Apr-19 01:33N 53°26' W 002°60'0 0.0
2015-Apr-19 00:33N 53°26' W 002°60'0 0.0
2015-Apr-18 23:34N 53°26' W 002°60'1 1.3
2015-Apr-18 22:33N 53°27' W 003°01'0 0.2
2015-Apr-18 21:33N 53°27' W 003°01'1 1.0
2015-Apr-18 20:33N 53°27' W 003°03'1 1.4
2015-Apr-18 19:33N 53°26' W 003°01'1 0.8
2015-Apr-18 18:33N 53°26' W 002°60'0 0.0
2015-Apr-18 17:33N 53°26' W 002°60'0 0.0
2015-Apr-18 16:34N 53°26' W 002°60'0 0.0
2015-Apr-18 15:34N 53°26' W 002°60'0 0.0
2015-Apr-18 14:34N 53°26' W 002°60'0 0.0
2015-Apr-18 13:34N 53°26' W 002°60'0 0.0
2015-Apr-18 12:34N 53°26' W 002°60'0 0.0
2015-Apr-18 11:33N 53°26' W 002°60'  
Track history (hours):
 
Tides and Currents Weather Stations Pressure Air Temp Water Temp Dewpoint Dewpoint Depression Visibility Wind Speed Wind Dir Waves Ship Positions

Smit Barbados

Last reported at 2015-Apr-28 11:33 UTC. Time now 2015-Apr-28 11:54 UTC.
Position N 53°26' W 002°60'.

Length 30 m; draft 4.8 m.

Type: Tug. MMSI: 235055303.

Date/timePositionNaut miles runAvg speedWind from/ knotsBaromVisibWave heightAir tempDewpointWater temp
2015-Apr-28 11:33N 53°26' W 002°60'0 0.0
2015-Apr-28 10:33N 53°26' W 002°60'0 0.0
2015-Apr-28 09:33N 53°26' W 002°60'0 0.2
2015-Apr-28 08:34N 53°26' W 003°00'1 0.7
2015-Apr-28 07:34N 53°27' W 003°01'1 1.3
2015-Apr-28 06:33N 53°28' W 003°02'0 0.1
2015-Apr-28 05:33N 53°28' W 003°01'0 0.2
2015-Apr-28 04:33N 53°28' W 003°01'0 0.0
2015-Apr-28 03:33N 53°28' W 003°01'0 0.0
2015-Apr-28 02:34N 53°28' W 003°01'0 0.0
2015-Apr-28 01:34N 53°28' W 003°01'0 0.0
2015-Apr-28 00:33N 53°28' W 003°01'0 0.0
2015-Apr-27 23:33N 53°28' W 003°01'0 0.1
2015-Apr-27 22:33N 53°27' W 003°01'0 0.2
2015-Apr-27 21:33N 53°28' W 003°02'2 2.0
2015-Apr-27 20:33N 53°26' W 002°60'1 0.8
2015-Apr-27 19:33N 53°27' W 003°00'1 1.3
2015-Apr-27 18:33N 53°28' W 003°02'1 0.8
2015-Apr-27 17:33N 53°27' W 003°01'1 1.4
2015-Apr-27 16:33N 53°28' W 003°03'2 1.6
2015-Apr-27 15:33N 53°27' W 003°01'1 1.1
2015-Apr-27 14:33N 53°26' W 002°60'0 0.0
2015-Apr-27 13:34N 53°26' W 002°60'0 0.0
2015-Apr-27 12:33N 53°26' W 002°60'0 0.0
2015-Apr-27 11:33N 53°26' W 002°60'0 0.0
2015-Apr-27 10:33N 53°26' W 002°60'0 0.0
2015-Apr-27 09:33N 53°26' W 002°60'0 0.0
2015-Apr-27 08:33N 53°26' W 002°60'0 0.0
2015-Apr-27 07:34N 53°26' W 002°60'0 0.0
2015-Apr-27 06:34N 53°26' W 002°60'0 0.0
2015-Apr-27 05:33N 53°26' W 002°60'0 0.0
2015-Apr-27 04:34N 53°26' W 002°60'0 0.0
2015-Apr-27 03:34N 53°26' W 002°60'0 0.0
2015-Apr-27 02:33N 53°26' W 002°60'0 0.0
2015-Apr-27 01:34N 53°26' W 002°60'0 0.0
2015-Apr-27 00:34N 53°26' W 002°60'0 0.0
2015-Apr-26 23:34N 53°26' W 002°60'0 0.0
2015-Apr-26 22:34N 53°26' W 002°60'0 0.0
2015-Apr-26 21:34N 53°26' W 002°60'0 0.0
2015-Apr-26 20:33N 53°26' W 002°60'0 0.0
2015-Apr-26 19:34N 53°26' W 002°60'0 0.0
2015-Apr-26 18:33N 53°26' W 002°60'0 0.0
2015-Apr-26 17:34N 53°26' W 002°60'0 0.0
2015-Apr-26 16:34N 53°26' W 002°60'0 0.0
2015-Apr-26 15:33N 53°26' W 002°60'0 0.0
2015-Apr-26 14:34N 53°26' W 002°60'0 0.0
2015-Apr-26 13:34N 53°26' W 002°60'0 0.0
2015-Apr-26 05:33N 53°26' W 002°60'2 1.9
2015-Apr-26 04:33N 53°28' W 003°01'1 0.8
2015-Apr-26 03:33N 53°27' W 003°01'3 2.5
2015-Apr-26 02:33N 53°29' W 003°04'3 2.5
2015-Apr-26 01:33N 53°27' W 003°01'1 0.6
2015-Apr-26 00:33N 53°27' W 003°01'2 1.7
2015-Apr-25 23:34N 53°26' W 003°00'0 0.2
2015-Apr-25 22:33N 53°26' W 002°60'0 0.0
2015-Apr-25 21:33N 53°26' W 002°60'0 0.0
2015-Apr-25 20:33N 53°26' W 002°60'0 0.0
2015-Apr-25 19:33N 53°26' W 002°60'0 0.0
2015-Apr-25 18:33N 53°26' W 002°60'0 0.0
2015-Apr-25 17:33N 53°26' W 002°60'1 0.7
2015-Apr-25 16:33N 53°26' W 003°01'0 0.0
2015-Apr-25 15:33N 53°26' W 003°01'0 0.1
2015-Apr-25 14:33N 53°26' W 003°00'0 0.3
2015-Apr-25 13:33N 53°26' W 003°00'1 1.0
2015-Apr-25 12:33N 53°27' W 003°01'0 0.5
2015-Apr-25 11:33N 53°27' W 003°02'1 1.3
2015-Apr-25 10:33N 53°26' W 002°60'0 0.0
2015-Apr-25 09:33N 53°26' W 002°60'0 0.0
2015-Apr-25 08:33N 53°26' W 002°60'0 0.0
2015-Apr-25 07:33N 53°26' W 002°60'0 0.0
2015-Apr-25 06:33N 53°26' W 002°60'0 0.0
2015-Apr-25 05:33N 53°26' W 002°60'0 0.0
2015-Apr-25 04:33N 53°26' W 002°60'0 0.0
2015-Apr-25 03:33N 53°26' W 002°60'1 1.3
2015-Apr-25 02:33N 53°27' W 003°01'0 0.5
2015-Apr-25 01:33N 53°27' W 003°01'2 1.7
2015-Apr-25 00:33N 53°26' W 002°60'0 0.0
2015-Apr-24 23:34N 53°26' W 002°60'0 0.0
2015-Apr-24 22:34N 53°26' W 002°60'0 0.0
2015-Apr-24 21:33N 53°26' W 002°60'0 0.0
2015-Apr-24 20:33N 53°26' W 002°60'0 0.0
2015-Apr-24 19:34N 53°26' W 002°60'0 0.0
2015-Apr-24 18:34N 53°26' W 002°60'0 0.0
2015-Apr-24 17:33N 53°26' W 002°60'0 0.0
2015-Apr-24 16:33N 53°26' W 002°60'1 0.7
2015-Apr-24 15:33N 53°26' W 003°00'0 0.1
2015-Apr-24 14:33N 53°26' W 003°01'2 1.9
2015-Apr-24 13:33N 53°28' W 003°03'1 0.8
2015-Apr-24 12:33N 53°27' W 003°02'0 0.5
2015-Apr-24 11:33N 53°27' W 003°01'1 0.8
2015-Apr-24 10:33N 53°27' W 003°00'1 0.6
2015-Apr-24 09:34N 53°26' W 002°60'1 0.5
2015-Apr-24 08:33N 53°26' W 003°01'2 1.8
2015-Apr-24 07:34N 53°25' W 003°00'2 1.7
2015-Apr-24 06:34N 53°26' W 003°01'1 0.7
2015-Apr-24 05:33N 53°26' W 002°60'0 0.0
2015-Apr-24 04:33N 53°26' W 002°60'0 0.0
2015-Apr-24 03:33N 53°26' W 002°60'2 1.8
2015-Apr-24 02:33N 53°27' W 003°01'1 0.6
2015-Apr-24 01:33N 53°27' W 003°01'1 1.2
2015-Apr-24 00:33N 53°28' W 003°03'2 1.7
2015-Apr-23 23:33N 53°26' W 003°01'1 0.9
2015-Apr-23 22:33N 53°27' W 003°01'0 0.4
2015-Apr-23 21:33N 53°28' W 003°01'2 1.9
2015-Apr-23 20:33N 53°26' W 002°60'0 0.0
2015-Apr-23 19:33N 53°26' W 002°60'0 0.0
2015-Apr-23 18:33N 53°26' W 002°60'0 0.0
2015-Apr-23 17:33N 53°26' W 002°60'0 0.0
2015-Apr-23 16:33N 53°26' W 002°60'0 0.0
2015-Apr-23 15:33N 53°26' W 002°60'0 0.0
2015-Apr-23 14:33N 53°26' W 002°60'0 0.0
2015-Apr-23 13:33N 53°26' W 002°60'0 0.0
2015-Apr-23 12:33N 53°26' W 003°00'1 0.6
2015-Apr-23 11:33N 53°26' W 003°01'0 0.2
2015-Apr-23 10:33N 53°26' W 003°01'0 0.2
2015-Apr-23 09:33N 53°26' W 003°01'1 0.6
2015-Apr-23 08:33N 53°26' W 002°60'0 0.0
2015-Apr-23 07:33N 53°26' W 002°60'0 0.0
2015-Apr-23 06:33N 53°26' W 002°60'0 0.0
2015-Apr-23 05:33N 53°26' W 002°60'0 0.0
2015-Apr-23 04:33N 53°26' W 002°60'0 0.0
2015-Apr-23 03:33N 53°26' W 002°60'0 0.0
2015-Apr-23 02:33N 53°26' W 002°60'0 0.0
2015-Apr-23 01:33N 53°26' W 002°60'0 0.0
2015-Apr-23 00:33N 53°26' W 002°60'0 0.0
2015-Apr-22 23:33N 53°26' W 002°60'0 0.0
2015-Apr-22 22:33N 53°26' W 002°60'0 0.0
2015-Apr-22 21:33N 53°26' W 002°60'0 0.0
2015-Apr-22 20:33N 53°26' W 002°60'0 0.0
2015-Apr-22 19:33N 53°26' W 002°60'0 0.0
2015-Apr-22 18:33N 53°26' W 002°60'0 0.0
2015-Apr-22 17:33N 53°26' W 002°60'0 0.0
2015-Apr-22 16:33N 53°26' W 002°60'0 0.0
2015-Apr-22 15:33N 53°26' W 002°60'0 0.0
2015-Apr-22 14:33N 53°26' W 002°60'0 0.0
2015-Apr-22 13:33N 53°26' W 002°60'0 0.0
2015-Apr-22 12:33N 53°26' W 002°60'0 0.0
2015-Apr-22 11:33N 53°26' W 002°60'0 0.0
2015-Apr-22 10:33N 53°26' W 002°60'0 0.0
2015-Apr-22 09:33N 53°26' W 002°60'0 0.0
2015-Apr-22 08:33N 53°26' W 002°60'0 0.0
2015-Apr-22 07:33N 53°26' W 002°60'0 0.0
2015-Apr-22 06:33N 53°26' W 002°60'0 0.0
2015-Apr-22 05:33N 53°26' W 002°60'0 0.0
2015-Apr-22 04:33N 53°26' W 002°60'0 0.0
2015-Apr-22 03:33N 53°26' W 002°60'0 0.0
2015-Apr-22 02:32N 53°26' W 002°60'0 0.0
2015-Apr-22 01:32N 53°26' W 002°60'0 0.0
2015-Apr-22 00:33N 53°26' W 002°60'0 0.0
2015-Apr-21 23:33N 53°26' W 002°60'0 0.0
2015-Apr-21 22:33N 53°26' W 002°60'0 0.0
2015-Apr-21 21:33N 53°26' W 002°60'0 0.0
2015-Apr-21 20:33N 53°26' W 002°60'0 0.0
2015-Apr-21 19:33N 53°26' W 002°60'0 0.0
2015-Apr-21 18:33N 53°26' W 002°60'0 0.0
2015-Apr-21 17:33N 53°26' W 002°60'0 0.0
2015-Apr-21 16:33N 53°26' W 002°60'1 0.7
2015-Apr-21 15:33N 53°26' W 003°01'3 3.4
2015-Apr-21 14:34N 53°23' W 002°60'3 2.7
2015-Apr-21 13:33N 53°21' W 002°58'3 2.8
2015-Apr-21 12:33N 53°23' W 003°00'4 3.6
2015-Apr-21 11:33N 53°27' W 003°01'1 0.5
2015-Apr-21 10:33N 53°26' W 003°01'1 0.6
2015-Apr-21 09:34N 53°26' W 003°00'0 0.0
2015-Apr-21 08:33N 53°26' W 003°00'1 0.7
2015-Apr-21 07:34N 53°27' W 003°00'1 0.7
2015-Apr-21 06:33N 53°26' W 002°60'0 0.0
2015-Apr-21 05:33N 53°26' W 002°60'0 0.0
2015-Apr-21 04:33N 53°26' W 002°60'0 0.0
2015-Apr-21 03:33N 53°26' W 002°60'0 0.0
2015-Apr-21 02:33N 53°26' W 002°60'0 0.0
2015-Apr-21 01:33N 53°26' W 002°60'0 0.0
2015-Apr-21 00:33N 53°26' W 002°60'0 0.0
2015-Apr-20 23:33N 53°26' W 002°60'0 0.0
2015-Apr-20 22:33N 53°26' W 002°60'0 0.0
2015-Apr-20 21:33N 53°26' W 002°60'0 0.0
2015-Apr-20 20:33N 53°26' W 002°60'0 0.0
2015-Apr-20 19:33N 53°26' W 002°60'0 0.0
2015-Apr-20 18:33N 53°26' W 002°60'0 0.0
2015-Apr-20 17:33N 53°26' W 002°60'0 0.0
2015-Apr-20 16:33N 53°26' W 002°60'1 0.7
2015-Apr-20 15:33N 53°26' W 003°01'6 6.5
2015-Apr-20 14:34N 53°20' W 002°57'1 0.9
2015-Apr-20 13:33N 53°19' W 002°57'1 0.6
2015-Apr-20 12:33N 53°20' W 002°57'4 3.7
2015-Apr-20 11:33N 53°23' W 003°00'1 0.9
2015-Apr-20 10:33N 53°24' W 003°01'2 1.7
2015-Apr-20 09:33N 53°26' W 002°60'0 0.0
2015-Apr-20 08:33N 53°26' W 002°60'0 0.0
2015-Apr-20 07:33N 53°26' W 002°60'0 0.0
2015-Apr-20 06:33N 53°26' W 002°60'0 0.0
2015-Apr-20 05:33N 53°26' W 002°60'0 0.0
2015-Apr-20 04:33N 53°26' W 002°60'0 0.0
2015-Apr-20 03:33N 53°26' W 002°60'0 0.0
2015-Apr-20 02:33N 53°26' W 002°60'0 0.0
2015-Apr-20 01:33N 53°26' W 002°60'0 0.0
2015-Apr-20 00:33N 53°26' W 002°60'0 0.0
2015-Apr-19 23:33N 53°26' W 002°60'0 0.0
2015-Apr-19 22:33N 53°26' W 002°60'0 0.0
2015-Apr-19 21:33N 53°26' W 002°60'0 0.0
2015-Apr-19 20:33N 53°26' W 002°60'0 0.0
2015-Apr-19 19:33N 53°26' W 002°60'0 0.0
2015-Apr-19 18:33N 53°26' W 002°60'0 0.0
2015-Apr-19 17:33N 53°26' W 002°60'0 0.0
2015-Apr-19 16:33N 53°26' W 002°60'0 0.0
2015-Apr-19 15:33N 53°26' W 002°60'0 0.0
2015-Apr-19 14:33N 53°26' W 002°60'0 0.0
2015-Apr-19 13:33N 53°26' W 002°60'1 1.5
2015-Apr-19 12:33N 53°27' W 003°01'0 0.1
2015-Apr-19 11:34N 53°27' W 003°01'0 0.4
2015-Apr-19 10:33N 53°27' W 003°01'1 1.2
2015-Apr-19 09:33N 53°26' W 002°60'0 0.0
2015-Apr-19 08:33N 53°26' W 003°00'2 1.7
2015-Apr-19 07:33N 53°27' W 003°01'2 1.7
2015-Apr-19 06:33N 53°26' W 003°00'0 0.0
2015-Apr-19 05:33N 53°26' W 002°60'0 0.0
2015-Apr-19 04:33N 53°26' W 002°60'0 0.0
2015-Apr-19 03:34N 53°26' W 002°60'0 0.0
2015-Apr-19 02:33N 53°26' W 002°60'0 0.0
2015-Apr-19 01:33N 53°26' W 002°60'0 0.0
2015-Apr-19 00:33N 53°26' W 002°60'0 0.0
2015-Apr-18 23:34N 53°26' W 002°60'1 1.3
2015-Apr-18 22:33N 53°27' W 003°01'0 0.2
2015-Apr-18 21:33N 53°27' W 003°01'1 1.0
2015-Apr-18 20:33N 53°27' W 003°03'1 1.4
2015-Apr-18 19:33N 53°26' W 003°01'1 0.8
2015-Apr-18 18:33N 53°26' W 002°60'0 0.0
2015-Apr-18 17:33N 53°26' W 002°60'0 0.0
2015-Apr-18 16:34N 53°26' W 002°60'0 0.0
2015-Apr-18 15:34N 53°26' W 002°60'0 0.0
2015-Apr-18 14:34N 53°26' W 002°60'0 0.0
2015-Apr-18 13:34N 53°26' W 002°60'0 0.0
2015-Apr-18 12:34N 53°26' W 002°60'0 0.0
2015-Apr-18 11:33N 53°26' W 002°60'  

Dump ship's entire track history